sensor_id;sensor_type;location;lat;lon;timestamp;P1;durP1;ratioP1;P2;durP2;ratioP2
19026;SDS011;9646;52.034;5.554;2023-04-24T00:00:46;1.85;;;1.00;;
19026;SDS011;9646;52.034;5.554;2023-04-24T00:03:13;2.13;;;1.23;;
19026;SDS011;9646;52.034;5.554;2023-04-24T00:05:40;1.17;;;0.82;;
19026;SDS011;9646;52.034;5.554;2023-04-24T00:08:07;1.02;;;0.70;;
19026;SDS011;9646;52.034;5.554;2023-04-24T00:10:34;2.55;;;0.80;;
19026;SDS011;9646;52.034;5.554;2023-04-24T00:13:03;1.40;;;0.82;;
19026;SDS011;9646;52.034;5.554;2023-04-24T00:15:30;1.60;;;0.95;;
19026;SDS011;9646;52.034;5.554;2023-04-24T00:17:58;1.48;;;0.90;;
19026;SDS011;9646;52.034;5.554;2023-04-24T00:20:26;0.98;;;0.80;;
19026;SDS011;9646;52.034;5.554;2023-04-24T00:22:54;0.63;;;0.63;;
19026;SDS011;9646;52.034;5.554;2023-04-24T00:25:21;3.10;;;0.70;;
19026;SDS011;9646;52.034;5.554;2023-04-24T00:27:48;0.80;;;0.80;;
19026;SDS011;9646;52.034;5.554;2023-04-24T00:30:17;2.28;;;1.17;;
19026;SDS011;9646;52.034;5.554;2023-04-24T00:32:44;1.20;;;0.73;;
19026;SDS011;9646;52.034;5.554;2023-04-24T00:35:11;1.60;;;0.70;;
19026;SDS011;9646;52.034;5.554;2023-04-24T00:37:39;2.05;;;0.70;;
19026;SDS011;9646;52.034;5.554;2023-04-24T00:40:07;1.02;;;0.70;;
19026;SDS011;9646;52.034;5.554;2023-04-24T00:42:34;1.05;;;0.57;;
19026;SDS011;9646;52.034;5.554;2023-04-24T00:45:02;1.05;;;0.70;;
19026;SDS011;9646;52.034;5.554;2023-04-24T00:47:30;0.80;;;0.55;;
19026;SDS011;9646;52.034;5.554;2023-04-24T00:50:00;1.13;;;0.68;;
19026;SDS011;9646;52.034;5.554;2023-04-24T00:52:27;1.67;;;0.80;;
19026;SDS011;9646;52.034;5.554;2023-04-24T00:54:56;2.10;;;0.75;;
19026;SDS011;9646;52.034;5.554;2023-04-24T00:57:23;3.47;;;0.70;;
19026;SDS011;9646;52.034;5.554;2023-04-24T00:59:50;1.23;;;0.70;;
19026;SDS011;9646;52.034;5.554;2023-04-24T01:02:18;0.75;;;0.70;;
19026;SDS011;9646;52.034;5.554;2023-04-24T01:04:47;0.95;;;0.70;;
19026;SDS011;9646;52.034;5.554;2023-04-24T01:07:14;0.82;;;0.60;;
19026;SDS011;9646;52.034;5.554;2023-04-24T01:09:41;2.15;;;1.10;;
19026;SDS011;9646;52.034;5.554;2023-04-24T01:12:09;1.35;;;0.80;;
19026;SDS011;9646;52.034;5.554;2023-04-24T01:14:36;0.95;;;0.90;;
19026;SDS011;9646;52.034;5.554;2023-04-24T01:17:03;0.70;;;0.60;;
19026;SDS011;9646;52.034;5.554;2023-04-24T01:19:30;2.15;;;0.55;;
19026;SDS011;9646;52.034;5.554;2023-04-24T01:21:59;1.95;;;0.70;;
19026;SDS011;9646;52.034;5.554;2023-04-24T01:24:30;0.50;;;0.40;;
19026;SDS011;9646;52.034;5.554;2023-04-24T01:26:57;0.50;;;0.40;;
19026;SDS011;9646;52.034;5.554;2023-04-24T01:29:24;0.57;;;0.50;;
19026;SDS011;9646;52.034;5.554;2023-04-24T01:31:51;0.63;;;0.35;;
19026;SDS011;9646;52.034;5.554;2023-04-24T01:34:18;0.60;;;0.28;;
19026;SDS011;9646;52.034;5.554;2023-04-24T01:36:45;1.25;;;0.50;;
19026;SDS011;9646;52.034;5.554;2023-04-24T01:39:12;2.30;;;0.60;;
19026;SDS011;9646;52.034;5.554;2023-04-24T01:41:42;1.30;;;0.68;;
19026;SDS011;9646;52.034;5.554;2023-04-24T01:44:09;0.65;;;0.55;;
19026;SDS011;9646;52.034;5.554;2023-04-24T01:46:36;0.95;;;0.60;;
19026;SDS011;9646;52.034;5.554;2023-04-24T01:49:03;0.95;;;0.40;;
19026;SDS011;9646;52.034;5.554;2023-04-24T01:51:30;0.50;;;0.50;;
19026;SDS011;9646;52.034;5.554;2023-04-24T01:53:57;0.80;;;0.65;;
19026;SDS011;9646;52.034;5.554;2023-04-24T01:56:24;0.80;;;0.60;;
19026;SDS011;9646;52.034;5.554;2023-04-24T01:58:53;1.23;;;0.60;;
19026;SDS011;9646;52.034;5.554;2023-04-24T02:01:21;0.98;;;0.70;;
19026;SDS011;9646;52.034;5.554;2023-04-24T02:03:48;0.98;;;0.60;;
19026;SDS011;9646;52.034;5.554;2023-04-24T02:06:15;0.88;;;0.80;;
19026;SDS011;9646;52.034;5.554;2023-04-24T02:08:42;1.25;;;0.80;;
19026;SDS011;9646;52.034;5.554;2023-04-24T02:11:09;1.55;;;0.98;;
19026;SDS011;9646;52.034;5.554;2023-04-24T02:13:36;2.13;;;1.27;;
19026;SDS011;9646;52.034;5.554;2023-04-24T02:16:05;2.03;;;1.38;;
19026;SDS011;9646;52.034;5.554;2023-04-24T02:18:32;1.63;;;1.30;;
19026;SDS011;9646;52.034;5.554;2023-04-24T02:20:59;1.20;;;1.02;;
19026;SDS011;9646;52.034;5.554;2023-04-24T02:23:26;1.83;;;1.50;;
19026;SDS011;9646;52.034;5.554;2023-04-24T02:25:53;2.22;;;1.70;;
19026;SDS011;9646;52.034;5.554;2023-04-24T02:28:20;2.13;;;1.50;;
19026;SDS011;9646;52.034;5.554;2023-04-24T02:30:47;2.22;;;1.88;;
19026;SDS011;9646;52.034;5.554;2023-04-24T02:33:16;3.95;;;1.95;;
19026;SDS011;9646;52.034;5.554;2023-04-24T02:35:43;2.67;;;1.85;;
19026;SDS011;9646;52.034;5.554;2023-04-24T02:38:10;3.00;;;1.65;;
19026;SDS011;9646;52.034;5.554;2023-04-24T02:40:37;1.95;;;1.65;;
19026;SDS011;9646;52.034;5.554;2023-04-24T02:43:04;1.98;;;1.70;;
19026;SDS011;9646;52.034;5.554;2023-04-24T02:45:31;2.90;;;2.03;;
19026;SDS011;9646;52.034;5.554;2023-04-24T02:47:59;2.00;;;1.48;;
19026;SDS011;9646;52.034;5.554;2023-04-24T02:50:28;2.65;;;1.90;;
19026;SDS011;9646;52.034;5.554;2023-04-24T02:52:55;2.17;;;1.83;;
19026;SDS011;9646;52.034;5.554;2023-04-24T02:55:22;3.17;;;1.70;;
19026;SDS011;9646;52.034;5.554;2023-04-24T02:57:49;3.63;;;2.30;;
19026;SDS011;9646;52.034;5.554;2023-04-24T03:00:16;2.60;;;2.38;;
19026;SDS011;9646;52.034;5.554;2023-04-24T03:02:43;3.28;;;2.67;;
19026;SDS011;9646;52.034;5.554;2023-04-24T03:05:10;2.55;;;2.30;;
19026;SDS011;9646;52.034;5.554;2023-04-24T03:07:39;2.90;;;2.60;;
19026;SDS011;9646;52.034;5.554;2023-04-24T03:10:06;3.67;;;2.72;;
19026;SDS011;9646;52.034;5.554;2023-04-24T03:12:34;3.33;;;2.47;;
19026;SDS011;9646;52.034;5.554;2023-04-24T03:15:01;5.68;;;2.72;;
19026;SDS011;9646;52.034;5.554;2023-04-24T03:17:28;3.30;;;3.00;;
19026;SDS011;9646;52.034;5.554;2023-04-24T03:19:55;2.45;;;2.25;;
19026;SDS011;9646;52.034;5.554;2023-04-24T03:22:22;3.70;;;2.70;;
19026;SDS011;9646;52.034;5.554;2023-04-24T03:24:50;3.25;;;2.70;;
19026;SDS011;9646;52.034;5.554;2023-04-24T03:27:17;2.88;;;2.58;;
19026;SDS011;9646;52.034;5.554;2023-04-24T03:29:44;5.28;;;2.83;;
19026;SDS011;9646;52.034;5.554;2023-04-24T03:32:11;2.92;;;2.67;;
19026;SDS011;9646;52.034;5.554;2023-04-24T03:34:38;5.72;;;3.90;;
19026;SDS011;9646;52.034;5.554;2023-04-24T03:37:06;3.08;;;2.67;;
19026;SDS011;9646;52.034;5.554;2023-04-24T03:39:33;4.07;;;3.33;;
19026;SDS011;9646;52.034;5.554;2023-04-24T03:42:01;7.00;;;5.25;;
19026;SDS011;9646;52.034;5.554;2023-04-24T03:44:28;5.10;;;4.05;;
19026;SDS011;9646;52.034;5.554;2023-04-24T03:46:55;7.85;;;5.25;;
19026;SDS011;9646;52.034;5.554;2023-04-24T03:49:24;8.93;;;6.57;;
19026;SDS011;9646;52.034;5.554;2023-04-24T03:51:51;7.35;;;6.10;;
19026;SDS011;9646;52.034;5.554;2023-04-24T03:54:18;8.43;;;7.38;;
19026;SDS011;9646;52.034;5.554;2023-04-24T03:56:46;7.45;;;5.72;;
19026;SDS011;9646;52.034;5.554;2023-04-24T03:59:14;8.23;;;5.15;;
19026;SDS011;9646;52.034;5.554;2023-04-24T04:01:41;6.85;;;5.60;;
19026;SDS011;9646;52.034;5.554;2023-04-24T04:04:08;9.18;;;7.03;;
19026;SDS011;9646;52.034;5.554;2023-04-24T04:06:35;8.27;;;5.80;;
19026;SDS011;9646;52.034;5.554;2023-04-24T04:09:02;7.75;;;6.43;;
19026;SDS011;9646;52.034;5.554;2023-04-24T04:11:30;8.00;;;5.93;;
19026;SDS011;9646;52.034;5.554;2023-04-24T04:13:57;4.50;;;3.78;;
19026;SDS011;9646;52.034;5.554;2023-04-24T04:16:25;2.47;;;1.95;;
19026;SDS011;9646;52.034;5.554;2023-04-24T04:18:52;1.10;;;0.90;;
19026;SDS011;9646;52.034;5.554;2023-04-24T04:21:20;1.30;;;1.00;;
19026;SDS011;9646;52.034;5.554;2023-04-24T04:23:47;1.48;;;1.08;;
19026;SDS011;9646;52.034;5.554;2023-04-24T04:26:14;0.82;;;0.70;;
19026;SDS011;9646;52.034;5.554;2023-04-24T04:28:41;1.58;;;1.27;;
19026;SDS011;9646;52.034;5.554;2023-04-24T04:31:09;2.53;;;1.13;;
19026;SDS011;9646;52.034;5.554;2023-04-24T04:33:38;3.15;;;1.50;;
19026;SDS011;9646;52.034;5.554;2023-04-24T04:36:05;3.33;;;1.98;;
19026;SDS011;9646;52.034;5.554;2023-04-24T04:38:32;5.50;;;2.50;;
19026;SDS011;9646;52.034;5.554;2023-04-24T04:41:00;5.90;;;2.72;;
19026;SDS011;9646;52.034;5.554;2023-04-24T04:43:27;5.43;;;2.80;;
19026;SDS011;9646;52.034;5.554;2023-04-24T04:45:55;7.30;;;3.85;;
19026;SDS011;9646;52.034;5.554;2023-04-24T04:48:22;8.40;;;3.75;;
19026;SDS011;9646;52.034;5.554;2023-04-24T04:50:51;6.10;;;3.05;;
19026;SDS011;9646;52.034;5.554;2023-04-24T04:53:18;6.13;;;3.05;;
19026;SDS011;9646;52.034;5.554;2023-04-24T04:55:45;5.40;;;2.85;;
19026;SDS011;9646;52.034;5.554;2023-04-24T04:58:12;6.13;;;3.28;;
19026;SDS011;9646;52.034;5.554;2023-04-24T05:00:39;6.15;;;3.17;;
19026;SDS011;9646;52.034;5.554;2023-04-24T05:03:06;9.85;;;4.20;;
19026;SDS011;9646;52.034;5.554;2023-04-24T05:05:33;4.07;;;2.72;;
19026;SDS011;9646;52.034;5.554;2023-04-24T05:08:02;7.32;;;3.15;;
19026;SDS011;9646;52.034;5.554;2023-04-24T05:10:29;5.45;;;2.70;;
19026;SDS011;9646;52.034;5.554;2023-04-24T05:12:56;7.05;;;3.65;;
19026;SDS011;9646;52.034;5.554;2023-04-24T05:15:23;6.32;;;3.55;;
19026;SDS011;9646;52.034;5.554;2023-04-24T05:17:50;5.50;;;2.97;;
19026;SDS011;9646;52.034;5.554;2023-04-24T05:20:17;5.90;;;2.67;;
19026;SDS011;9646;52.034;5.554;2023-04-24T05:22:44;6.43;;;3.22;;
19026;SDS011;9646;52.034;5.554;2023-04-24T05:25:12;7.45;;;3.17;;
19026;SDS011;9646;52.034;5.554;2023-04-24T05:27:39;6.38;;;3.38;;
19026;SDS011;9646;52.034;5.554;2023-04-24T05:30:07;4.63;;;2.13;;
19026;SDS011;9646;52.034;5.554;2023-04-24T05:32:34;4.30;;;2.20;;
19026;SDS011;9646;52.034;5.554;2023-04-24T05:35:01;4.20;;;2.17;;
19026;SDS011;9646;52.034;5.554;2023-04-24T05:37:28;4.28;;;2.25;;
19026;SDS011;9646;52.034;5.554;2023-04-24T05:39:55;4.07;;;2.85;;
19026;SDS011;9646;52.034;5.554;2023-04-24T05:42:24;5.72;;;3.10;;
19026;SDS011;9646;52.034;5.554;2023-04-24T05:44:51;3.75;;;2.42;;
19026;SDS011;9646;52.034;5.554;2023-04-24T05:47:19;6.82;;;2.83;;
19026;SDS011;9646;52.034;5.554;2023-04-24T05:49:46;3.85;;;2.17;;
19026;SDS011;9646;52.034;5.554;2023-04-24T05:52:13;4.03;;;2.78;;
19026;SDS011;9646;52.034;5.554;2023-04-24T05:54:40;5.50;;;2.67;;
19026;SDS011;9646;52.034;5.554;2023-04-24T05:57:07;4.93;;;2.58;;
19026;SDS011;9646;52.034;5.554;2023-04-24T05:59:36;3.03;;;1.80;;
19026;SDS011;9646;52.034;5.554;2023-04-24T06:02:03;5.47;;;2.88;;
19026;SDS011;9646;52.034;5.554;2023-04-24T06:04:31;4.15;;;2.17;;
19026;SDS011;9646;52.034;5.554;2023-04-24T06:06:58;7.15;;;2.45;;
19026;SDS011;9646;52.034;5.554;2023-04-24T06:09:25;4.68;;;2.03;;
19026;SDS011;9646;52.034;5.554;2023-04-24T06:11:53;2.42;;;1.42;;
19026;SDS011;9646;52.034;5.554;2023-04-24T06:14:21;3.92;;;2.38;;
19026;SDS011;9646;52.034;5.554;2023-04-24T06:16:50;4.15;;;2.20;;
19026;SDS011;9646;52.034;5.554;2023-04-24T06:19:17;3.40;;;1.85;;
19026;SDS011;9646;52.034;5.554;2023-04-24T06:21:44;2.75;;;1.85;;
19026;SDS011;9646;52.034;5.554;2023-04-24T06:24:13;2.50;;;1.90;;
19026;SDS011;9646;52.034;5.554;2023-04-24T06:26:41;2.55;;;1.85;;
19026;SDS011;9646;52.034;5.554;2023-04-24T06:29:08;4.68;;;2.40;;
19026;SDS011;9646;52.034;5.554;2023-04-24T06:31:35;2.25;;;2.03;;
19026;SDS011;9646;52.034;5.554;2023-04-24T06:34:04;4.30;;;2.53;;
19026;SDS011;9646;52.034;5.554;2023-04-24T06:36:31;3.72;;;2.30;;
19026;SDS011;9646;52.034;5.554;2023-04-24T06:38:59;3.03;;;2.28;;
19026;SDS011;9646;52.034;5.554;2023-04-24T06:41:26;2.88;;;2.35;;
19026;SDS011;9646;52.034;5.554;2023-04-24T06:43:53;2.80;;;2.10;;
19026;SDS011;9646;52.034;5.554;2023-04-24T06:46:21;2.10;;;1.60;;
19026;SDS011;9646;52.034;5.554;2023-04-24T06:48:51;1.50;;;1.35;;
19026;SDS011;9646;52.034;5.554;2023-04-24T06:51:21;3.20;;;1.67;;
19026;SDS011;9646;52.034;5.554;2023-04-24T06:53:48;2.03;;;1.60;;
19026;SDS011;9646;52.034;5.554;2023-04-24T06:56:16;1.83;;;1.13;;
19026;SDS011;9646;52.034;5.554;2023-04-24T06:58:43;1.55;;;1.00;;
19026;SDS011;9646;52.034;5.554;2023-04-24T07:01:10;2.22;;;1.25;;
19026;SDS011;9646;52.034;5.554;2023-04-24T07:03:37;1.73;;;1.40;;
19026;SDS011;9646;52.034;5.554;2023-04-24T07:06:05;3.28;;;1.70;;
19026;SDS011;9646;52.034;5.554;2023-04-24T07:08:33;2.20;;;1.70;;
19026;SDS011;9646;52.034;5.554;2023-04-24T07:11:00;6.50;;;2.78;;
19026;SDS011;9646;52.034;5.554;2023-04-24T07:13:27;3.83;;;2.42;;
19026;SDS011;9646;52.034;5.554;2023-04-24T07:15:54;5.68;;;3.67;;
19026;SDS011;9646;52.034;5.554;2023-04-24T07:18:22;5.32;;;3.85;;
19026;SDS011;9646;52.034;5.554;2023-04-24T07:20:49;6.68;;;3.85;;
19026;SDS011;9646;52.034;5.554;2023-04-24T07:23:16;6.10;;;3.90;;
19026;SDS011;9646;52.034;5.554;2023-04-24T07:25:45;6.00;;;3.80;;
19026;SDS011;9646;52.034;5.554;2023-04-24T07:28:12;5.93;;;4.10;;
19026;SDS011;9646;52.034;5.554;2023-04-24T07:30:39;8.13;;;4.10;;
19026;SDS011;9646;52.034;5.554;2023-04-24T07:33:06;5.13;;;3.90;;
19026;SDS011;9646;52.034;5.554;2023-04-24T07:35:33;7.80;;;4.10;;
19026;SDS011;9646;52.034;5.554;2023-04-24T07:38:01;9.73;;;5.05;;
19026;SDS011;9646;52.034;5.554;2023-04-24T07:40:28;7.25;;;4.63;;
19026;SDS011;9646;52.034;5.554;2023-04-24T07:42:56;6.78;;;4.60;;
19026;SDS011;9646;52.034;5.554;2023-04-24T07:45:23;5.53;;;3.75;;
19026;SDS011;9646;52.034;5.554;2023-04-24T07:47:51;7.35;;;4.32;;
19026;SDS011;9646;52.034;5.554;2023-04-24T07:50:18;8.85;;;4.13;;
19026;SDS011;9646;52.034;5.554;2023-04-24T07:52:46;8.93;;;5.32;;
19026;SDS011;9646;52.034;5.554;2023-04-24T07:55:13;8.73;;;4.68;;
19026;SDS011;9646;52.034;5.554;2023-04-24T07:57:40;9.07;;;4.78;;
19026;SDS011;9646;52.034;5.554;2023-04-24T08:00:09;5.95;;;4.85;;
19026;SDS011;9646;52.034;5.554;2023-04-24T08:02:36;9.77;;;5.18;;
19026;SDS011;9646;52.034;5.554;2023-04-24T08:05:03;8.02;;;4.82;;
19026;SDS011;9646;52.034;5.554;2023-04-24T08:07:31;7.13;;;4.10;;
19026;SDS011;9646;52.034;5.554;2023-04-24T08:09:58;9.60;;;4.88;;
19026;SDS011;9646;52.034;5.554;2023-04-24T08:12:25;10.50;;;5.30;;
19026;SDS011;9646;52.034;5.554;2023-04-24T08:14:52;6.85;;;4.68;;
19026;SDS011;9646;52.034;5.554;2023-04-24T08:17:20;7.00;;;4.20;;
19026;SDS011;9646;52.034;5.554;2023-04-24T08:19:47;6.80;;;4.20;;
19026;SDS011;9646;52.034;5.554;2023-04-24T08:22:16;9.93;;;5.18;;
19026;SDS011;9646;52.034;5.554;2023-04-24T08:24:43;9.15;;;4.93;;
19026;SDS011;9646;52.034;5.554;2023-04-24T08:27:10;8.07;;;4.18;;
19026;SDS011;9646;52.034;5.554;2023-04-24T08:29:37;5.68;;;3.63;;
19026;SDS011;9646;52.034;5.554;2023-04-24T08:32:04;8.95;;;4.65;;
19026;SDS011;9646;52.034;5.554;2023-04-24T08:34:33;6.38;;;3.50;;
19026;SDS011;9646;52.034;5.554;2023-04-24T08:37:00;5.68;;;2.78;;
19026;SDS011;9646;52.034;5.554;2023-04-24T08:39:27;8.05;;;3.47;;
19026;SDS011;9646;52.034;5.554;2023-04-24T08:41:54;8.20;;;2.60;;
19026;SDS011;9646;52.034;5.554;2023-04-24T08:44:22;9.45;;;2.97;;
19026;SDS011;9646;52.034;5.554;2023-04-24T08:46:49;8.40;;;2.97;;
19026;SDS011;9646;52.034;5.554;2023-04-24T08:49:17;4.28;;;2.13;;
19026;SDS011;9646;52.034;5.554;2023-04-24T08:51:46;7.38;;;2.65;;
19026;SDS011;9646;52.034;5.554;2023-04-24T08:54:13;11.00;;;3.10;;
19026;SDS011;9646;52.034;5.554;2023-04-24T08:56:40;8.80;;;2.88;;
19026;SDS011;9646;52.034;5.554;2023-04-24T08:59:09;11.50;;;3.17;;
19026;SDS011;9646;52.034;5.554;2023-04-24T09:01:37;10.57;;;3.05;;
19026;SDS011;9646;52.034;5.554;2023-04-24T09:04:05;10.02;;;3.17;;
19026;SDS011;9646;52.034;5.554;2023-04-24T09:06:33;7.97;;;2.65;;
19026;SDS011;9646;52.034;5.554;2023-04-24T09:09:02;10.63;;;2.92;;
19026;SDS011;9646;52.034;5.554;2023-04-24T09:11:30;8.70;;;2.60;;
19026;SDS011;9646;52.034;5.554;2023-04-24T09:13:57;6.05;;;2.45;;
19026;SDS011;9646;52.034;5.554;2023-04-24T09:16:25;5.78;;;1.88;;
19026;SDS011;9646;52.034;5.554;2023-04-24T09:18:52;9.15;;;2.10;;
19026;SDS011;9646;52.034;5.554;2023-04-24T09:21:20;7.43;;;2.00;;
19026;SDS011;9646;52.034;5.554;2023-04-24T09:23:47;8.45;;;2.22;;
19026;SDS011;9646;52.034;5.554;2023-04-24T09:26:26;11.02;;;2.42;;
19026;SDS011;9646;52.034;5.554;2023-04-24T09:28:56;7.45;;;2.47;;
19026;SDS011;9646;52.034;5.554;2023-04-24T09:31:24;4.97;;;2.05;;
19026;SDS011;9646;52.034;5.554;2023-04-24T09:33:53;8.55;;;1.90;;
19026;SDS011;9646;52.034;5.554;2023-04-24T09:36:26;13.10;;;3.05;;
19026;SDS011;9646;52.034;5.554;2023-04-24T09:38:53;7.35;;;2.55;;
19026;SDS011;9646;52.034;5.554;2023-04-24T09:41:26;8.35;;;2.33;;
19026;SDS011;9646;52.034;5.554;2023-04-24T09:43:54;10.00;;;2.65;;
19026;SDS011;9646;52.034;5.554;2023-04-24T09:46:21;14.40;;;2.80;;
19026;SDS011;9646;52.034;5.554;2023-04-24T09:48:48;9.77;;;2.75;;
19026;SDS011;9646;52.034;5.554;2023-04-24T09:51:15;12.15;;;2.90;;
19026;SDS011;9646;52.034;5.554;2023-04-24T09:53:45;7.03;;;2.35;;
19026;SDS011;9646;52.034;5.554;2023-04-24T09:56:12;8.75;;;2.50;;
19026;SDS011;9646;52.034;5.554;2023-04-24T09:58:40;5.93;;;2.47;;
19026;SDS011;9646;52.034;5.554;2023-04-24T10:01:07;10.32;;;2.80;;
19026;SDS011;9646;52.034;5.554;2023-04-24T10:03:35;8.93;;;2.55;;
19026;SDS011;9646;52.034;5.554;2023-04-24T10:06:03;8.65;;;2.47;;
19026;SDS011;9646;52.034;5.554;2023-04-24T10:08:33;8.85;;;2.30;;
19026;SDS011;9646;52.034;5.554;2023-04-24T10:11:00;10.32;;;2.70;;
19026;SDS011;9646;52.034;5.554;2023-04-24T10:13:28;6.80;;;2.58;;
19026;SDS011;9646;52.034;5.554;2023-04-24T10:15:56;5.60;;;1.75;;
19026;SDS011;9646;52.034;5.554;2023-04-24T10:18:27;5.90;;;2.03;;
19026;SDS011;9646;52.034;5.554;2023-04-24T10:20:54;7.43;;;2.17;;
19026;SDS011;9646;52.034;5.554;2023-04-24T10:23:23;9.85;;;2.42;;
19026;SDS011;9646;52.034;5.554;2023-04-24T10:25:52;7.47;;;2.00;;
19026;SDS011;9646;52.034;5.554;2023-04-24T10:28:19;7.15;;;1.80;;
19026;SDS011;9646;52.034;5.554;2023-04-24T10:30:47;7.10;;;2.28;;
19026;SDS011;9646;52.034;5.554;2023-04-24T10:33:16;5.20;;;1.70;;
19026;SDS011;9646;52.034;5.554;2023-04-24T10:35:44;5.85;;;1.80;;
19026;SDS011;9646;52.034;5.554;2023-04-24T10:38:14;6.47;;;1.85;;
19026;SDS011;9646;52.034;5.554;2023-04-24T10:40:42;7.90;;;2.28;;
19026;SDS011;9646;52.034;5.554;2023-04-24T10:43:09;5.38;;;1.73;;
19026;SDS011;9646;52.034;5.554;2023-04-24T10:45:37;7.60;;;1.50;;
19026;SDS011;9646;52.034;5.554;2023-04-24T10:48:04;5.90;;;1.75;;
19026;SDS011;9646;52.034;5.554;2023-04-24T10:50:46;8.18;;;1.60;;
19026;SDS011;9646;52.034;5.554;2023-04-24T10:53:15;4.95;;;1.70;;
19026;SDS011;9646;52.034;5.554;2023-04-24T10:55:44;6.10;;;1.63;;
19026;SDS011;9646;52.034;5.554;2023-04-24T10:58:11;6.47;;;1.73;;
19026;SDS011;9646;52.034;5.554;2023-04-24T11:00:40;2.92;;;1.00;;
19026;SDS011;9646;52.034;5.554;2023-04-24T11:03:09;3.03;;;0.95;;
19026;SDS011;9646;52.034;5.554;2023-04-24T11:05:51;4.18;;;1.33;;
19026;SDS011;9646;52.034;5.554;2023-04-24T11:08:22;2.42;;;0.90;;
19026;SDS011;9646;52.034;5.554;2023-04-24T11:10:55;3.85;;;1.20;;
19026;SDS011;9646;52.034;5.554;2023-04-24T11:13:23;4.10;;;0.93;;
19026;SDS011;9646;52.034;5.554;2023-04-24T11:18:36;4.53;;;1.05;;
19026;SDS011;9646;52.034;5.554;2023-04-24T11:21:10;1.58;;;0.80;;
19026;SDS011;9646;52.034;5.554;2023-04-24T11:23:38;3.97;;;1.15;;
19026;SDS011;9646;52.034;5.554;2023-04-24T11:26:12;4.10;;;0.88;;
19026;SDS011;9646;52.034;5.554;2023-04-24T11:28:44;3.47;;;0.85;;
19026;SDS011;9646;52.034;5.554;2023-04-24T11:33:56;4.60;;;0.80;;
19026;SDS011;9646;52.034;5.554;2023-04-24T11:36:25;2.22;;;0.90;;
19026;SDS011;9646;52.034;5.554;2023-04-24T11:38:52;3.92;;;1.10;;
19026;SDS011;9646;52.034;5.554;2023-04-24T11:41:19;3.08;;;1.00;;
19026;SDS011;9646;52.034;5.554;2023-04-24T11:43:47;4.25;;;1.10;;
19026;SDS011;9646;52.034;5.554;2023-04-24T11:46:16;2.22;;;0.82;;
19026;SDS011;9646;52.034;5.554;2023-04-24T11:48:44;2.40;;;0.70;;
19026;SDS011;9646;52.034;5.554;2023-04-24T11:51:11;4.32;;;1.20;;
19026;SDS011;9646;52.034;5.554;2023-04-24T11:53:40;6.43;;;1.40;;
19026;SDS011;9646;52.034;5.554;2023-04-24T11:56:08;3.33;;;1.13;;
19026;SDS011;9646;52.034;5.554;2023-04-24T11:58:35;4.45;;;1.30;;
19026;SDS011;9646;52.034;5.554;2023-04-24T12:01:02;4.13;;;1.23;;
19026;SDS011;9646;52.034;5.554;2023-04-24T12:03:30;3.80;;;0.93;;
19026;SDS011;9646;52.034;5.554;2023-04-24T12:06:04;3.15;;;1.23;;
19026;SDS011;9646;52.034;5.554;2023-04-24T12:08:32;5.68;;;1.45;;
19026;SDS011;9646;52.034;5.554;2023-04-24T12:11:01;4.07;;;1.10;;
19026;SDS011;9646;52.034;5.554;2023-04-24T12:13:28;3.65;;;0.90;;
19026;SDS011;9646;52.034;5.554;2023-04-24T12:15:56;3.80;;;0.98;;
19026;SDS011;9646;52.034;5.554;2023-04-24T12:18:23;1.40;;;0.57;;
19026;SDS011;9646;52.034;5.554;2023-04-24T12:20:50;1.55;;;0.70;;
19026;SDS011;9646;52.034;5.554;2023-04-24T12:23:32;1.75;;;0.60;;
19026;SDS011;9646;52.034;5.554;2023-04-24T12:26:03;2.70;;;0.50;;
19026;SDS011;9646;52.034;5.554;2023-04-24T12:28:34;4.50;;;1.10;;
19026;SDS011;9646;52.034;5.554;2023-04-24T12:31:02;2.70;;;0.70;;
19026;SDS011;9646;52.034;5.554;2023-04-24T12:33:32;3.72;;;1.05;;
19026;SDS011;9646;52.034;5.554;2023-04-24T12:35:59;4.70;;;1.27;;
19026;SDS011;9646;52.034;5.554;2023-04-24T12:38:27;3.58;;;0.90;;
19026;SDS011;9646;52.034;5.554;2023-04-24T12:41:03;4.90;;;0.93;;
19026;SDS011;9646;52.034;5.554;2023-04-24T12:43:30;3.30;;;1.10;;
19026;SDS011;9646;52.034;5.554;2023-04-24T12:45:57;6.30;;;1.70;;
19026;SDS011;9646;52.034;5.554;2023-04-24T12:48:24;6.70;;;1.48;;
19026;SDS011;9646;52.034;5.554;2023-04-24T12:50:51;3.58;;;1.38;;
19026;SDS011;9646;52.034;5.554;2023-04-24T12:53:19;3.75;;;0.82;;
19026;SDS011;9646;52.034;5.554;2023-04-24T12:55:51;4.55;;;1.58;;
19026;SDS011;9646;52.034;5.554;2023-04-24T12:58:20;4.32;;;1.42;;
19026;SDS011;9646;52.034;5.554;2023-04-24T13:00:47;4.78;;;1.45;;
19026;SDS011;9646;52.034;5.554;2023-04-24T13:03:14;5.10;;;1.73;;
19026;SDS011;9646;52.034;5.554;2023-04-24T13:05:41;4.75;;;1.30;;
19026;SDS011;9646;52.034;5.554;2023-04-24T13:08:09;5.65;;;1.27;;
19026;SDS011;9646;52.034;5.554;2023-04-24T13:10:38;4.80;;;1.20;;
19026;SDS011;9646;52.034;5.554;2023-04-24T13:13:05;6.75;;;1.80;;
19026;SDS011;9646;52.034;5.554;2023-04-24T13:15:34;6.72;;;2.00;;
19026;SDS011;9646;52.034;5.554;2023-04-24T13:18:01;7.20;;;2.03;;
19026;SDS011;9646;52.034;5.554;2023-04-24T13:20:28;6.50;;;1.75;;
19026;SDS011;9646;52.034;5.554;2023-04-24T13:22:56;6.53;;;1.90;;
19026;SDS011;9646;52.034;5.554;2023-04-24T13:25:26;7.25;;;1.80;;
19026;SDS011;9646;52.034;5.554;2023-04-24T13:27:53;6.47;;;1.92;;
19026;SDS011;9646;52.034;5.554;2023-04-24T13:30:20;4.30;;;1.50;;
19026;SDS011;9646;52.034;5.554;2023-04-24T13:32:49;7.43;;;1.55;;
19026;SDS011;9646;52.034;5.554;2023-04-24T13:35:16;5.22;;;1.98;;
19026;SDS011;9646;52.034;5.554;2023-04-24T13:37:43;11.55;;;1.92;;
19026;SDS011;9646;52.034;5.554;2023-04-24T13:40:10;3.67;;;1.70;;
19026;SDS011;9646;52.034;5.554;2023-04-24T13:42:37;5.53;;;1.77;;
19026;SDS011;9646;52.034;5.554;2023-04-24T13:45:05;6.03;;;1.60;;
19026;SDS011;9646;52.034;5.554;2023-04-24T13:47:32;5.15;;;1.85;;
19026;SDS011;9646;52.034;5.554;2023-04-24T13:50:01;4.72;;;1.60;;
19026;SDS011;9646;52.034;5.554;2023-04-24T13:52:28;6.18;;;2.22;;
19026;SDS011;9646;52.034;5.554;2023-04-24T13:54:56;7.85;;;2.30;;
19026;SDS011;9646;52.034;5.554;2023-04-24T13:57:23;7.45;;;2.53;;
19026;SDS011;9646;52.034;5.554;2023-04-24T13:59:50;8.55;;;1.90;;
19026;SDS011;9646;52.034;5.554;2023-04-24T14:02:17;8.60;;;2.22;;
19026;SDS011;9646;52.034;5.554;2023-04-24T14:04:44;8.45;;;2.83;;
19026;SDS011;9646;52.034;5.554;2023-04-24T14:07:14;8.57;;;2.55;;
19026;SDS011;9646;52.034;5.554;2023-04-24T14:09:41;6.25;;;2.00;;
19026;SDS011;9646;52.034;5.554;2023-04-24T14:12:08;10.77;;;2.67;;
19026;SDS011;9646;52.034;5.554;2023-04-24T14:14:36;5.82;;;2.15;;
19026;SDS011;9646;52.034;5.554;2023-04-24T14:17:03;7.72;;;2.60;;
19026;SDS011;9646;52.034;5.554;2023-04-24T14:19:30;5.80;;;1.83;;
19026;SDS011;9646;52.034;5.554;2023-04-24T14:21:57;9.18;;;2.08;;
19026;SDS011;9646;52.034;5.554;2023-04-24T14:24:26;5.10;;;1.88;;
19026;SDS011;9646;52.034;5.554;2023-04-24T14:26:53;5.70;;;1.80;;
19026;SDS011;9646;52.034;5.554;2023-04-24T14:29:21;8.30;;;2.10;;
19026;SDS011;9646;52.034;5.554;2023-04-24T14:31:49;7.57;;;2.28;;
19026;SDS011;9646;52.034;5.554;2023-04-24T14:34:16;4.22;;;1.90;;
19026;SDS011;9646;52.034;5.554;2023-04-24T14:36:43;8.48;;;2.30;;
19026;SDS011;9646;52.034;5.554;2023-04-24T14:39:10;6.57;;;2.35;;
19026;SDS011;9646;52.034;5.554;2023-04-24T14:41:39;7.68;;;2.70;;
19026;SDS011;9646;52.034;5.554;2023-04-24T14:44:06;8.77;;;2.65;;
19026;SDS011;9646;52.034;5.554;2023-04-24T14:46:33;5.93;;;2.00;;
19026;SDS011;9646;52.034;5.554;2023-04-24T14:49:00;6.47;;;2.42;;
19026;SDS011;9646;52.034;5.554;2023-04-24T14:51:27;8.55;;;2.60;;
19026;SDS011;9646;52.034;5.554;2023-04-24T14:53:55;6.03;;;2.78;;
19026;SDS011;9646;52.034;5.554;2023-04-24T14:56:23;6.53;;;2.67;;
19026;SDS011;9646;52.034;5.554;2023-04-24T14:58:51;8.70;;;3.25;;
19026;SDS011;9646;52.034;5.554;2023-04-24T15:01:19;9.73;;;2.70;;
19026;SDS011;9646;52.034;5.554;2023-04-24T15:03:46;9.15;;;3.30;;
19026;SDS011;9646;52.034;5.554;2023-04-24T15:06:13;7.53;;;2.92;;
19026;SDS011;9646;52.034;5.554;2023-04-24T15:08:40;8.82;;;2.90;;